Time;durP1;ratioP1;P1;durP2;ratioP2;P2;SDS_P1;SDS_P2;PMS_P1;PMS_P2;Temp;Humidity;BMP_temperature;BMP_pressure;BME280_temperature;BME280_humidity;BME280_pressure;Samples;Min_cycle;Max_cycle;Signal;HPM_P1;HPM_P2
2021/10/11 00:00:36;;;;;;;31.93;18.00;;;6.40;99.90;;;;;;5049113;28;20389;-54
2021/10/11 00:03:02;;;;;;;27.52;17.27;;;5.50;99.90;;;;;;5051546;28;20412;-54
2021/10/11 00:05:28;;;;;;;26.33;17.87;;;5.50;99.90;;;;;;5051402;28;20450;-54
2021/10/11 00:07:53;;;;;;;29.58;17.45;;;5.40;99.90;;;;;;5050358;28;20413;-54
2021/10/11 00:10:19;;;;;;;29.42;18.42;;;5.50;99.90;;;;;;5050733;28;20879;-54
2021/10/11 00:12:49;;;;;;;31.60;18.70;;;5.60;99.90;;;;;;5050359;28;20384;-54
2021/10/11 00:15:17;;;;;;;36.92;17.90;;;5.70;99.90;;;;;;5050924;28;20389;-53
2021/10/11 00:17:43;;;;;;;29.52;17.75;;;5.80;99.90;;;;;;5049668;28;20464;-54
2021/10/11 00:20:10;;;;;;;29.92;17.52;;;5.70;99.90;;;;;;5049481;28;20888;-56
2021/10/11 00:22:36;;;;;;;31.17;18.55;;;5.70;99.90;;;;;;5050241;28;20408;-56
2021/10/11 00:25:04;;;;;;;27.30;17.25;;;5.80;99.90;;;;;;5050413;28;20737;-54
2021/10/11 00:27:34;;;;;;;28.70;18.52;;;5.70;99.90;;;;;;5050500;28;20460;-53
2021/10/11 00:30:00;;;;;;;28.40;17.33;;;5.70;99.90;;;;;;5049757;28;20787;-54
2021/10/11 00:32:26;;;;;;;29.23;17.88;;;5.70;99.90;;;;;;5048650;28;20452;-54
2021/10/11 00:34:52;;;;;;;32.63;19.38;;;5.50;99.90;;;;;;5048240;28;20463;-54
2021/10/11 00:37:17;;;;;;;28.10;18.33;;;5.60;99.90;;;;;;5050206;28;20392;-54
2021/10/11 00:39:43;;;;;;;28.33;17.30;;;5.60;99.90;;;;;;5049409;28;20452;-54
2021/10/11 00:42:08;;;;;;;31.73;17.80;;;5.50;99.90;;;;;;5050289;28;20462;-54
2021/10/11 00:44:34;;;;;;;28.85;17.55;;;5.50;99.90;;;;;;5050099;28;20420;-57
2021/10/11 00:47:00;;;;;;;31.97;19.00;;;5.50;99.90;;;;;;5049699;28;20469;-54
2021/10/11 00:49:26;;;;;;;33.95;19.13;;;5.40;99.90;;;;;;5050391;28;20834;-54
2021/10/11 00:51:51;;;;;;;29.97;17.70;;;5.40;99.90;;;;;;5049342;28;20382;-54
2021/10/11 00:54:17;;;;;;;28.58;17.70;;;5.30;99.90;;;;;;5050122;28;20469;-54
2021/10/11 00:56:44;;;;;;;34.50;18.63;;;5.30;99.90;;;;;;5049409;28;20454;-54
2021/10/11 00:59:09;;;;;;;28.02;17.35;;;5.20;99.90;;;;;;5050189;28;20867;-54
2021/10/11 01:01:35;;;;;;;29.45;18.38;;;5.20;99.90;;;;;;5049158;28;20435;-58
2021/10/11 01:04:05;;;;;;;32.97;19.20;;;5.20;99.90;;;;;;5049833;28;20378;-54
2021/10/11 01:06:35;;;;;;;30.63;18.53;;;5.20;99.90;;;;;;5050019;28;20404;-54
2021/10/11 01:09:01;;;;;;;33.13;19.05;;;5.20;99.90;;;;;;5081624;28;20745;-54
2021/10/11 01:11:26;;;;;;;30.48;18.98;;;5.20;99.90;;;;;;5049775;28;20389;-53
2021/10/11 01:13:52;;;;;;;29.83;18.70;;;5.10;99.90;;;;;;5048898;28;21227;-54
2021/10/11 01:16:17;;;;;;;30.90;19.48;;;5.20;99.90;;;;;;5043615;28;20389;-54
2021/10/11 01:18:43;;;;;;;32.47;18.43;;;5.20;99.90;;;;;;5034193;28;20494;-54
2021/10/11 01:21:09;;;;;;;32.72;18.70;;;5.20;99.90;;;;;;5046833;28;20864;-54
2021/10/11 01:23:34;;;;;;;30.77;18.20;;;5.70;99.90;;;;;;5049568;28;20468;-57
2021/10/11 01:26:00;;;;;;;31.17;19.00;;;5.30;99.90;;;;;;5038333;28;20407;-54
2021/10/11 01:28:26;;;;;;;29.07;18.30;;;5.30;99.90;;;;;;5029750;28;20694;-55
2021/10/11 01:30:52;;;;;;;28.80;18.20;;;5.40;99.90;;;;;;5028699;28;20944;-55
2021/10/11 01:33:18;;;;;;;30.30;18.83;;;5.40;99.90;;;;;;5029539;28;20410;-55
2021/10/11 01:35:44;;;;;;;29.05;17.48;;;5.50;99.90;;;;;;5028843;28;20415;-55
2021/10/11 01:38:11;;;;;;;29.02;17.73;;;5.50;99.90;;;;;;5029524;28;20473;-55
2021/10/11 01:40:37;;;;;;;29.17;18.25;;;5.40;99.90;;;;;;5028665;28;20398;-58
2021/10/11 01:43:03;;;;;;;29.75;16.88;;;5.30;99.90;;;;;;5061261;28;20758;-55
2021/10/11 01:45:29;;;;;;;28.80;17.00;;;5.40;99.90;;;;;;5044339;28;20398;-55
2021/10/11 01:47:54;;;;;;;26.75;16.70;;;5.30;99.90;;;;;;5028324;28;21011;-55
2021/10/11 01:50:20;;;;;;;29.60;16.33;;;5.20;99.90;;;;;;5029375;28;20514;-55
2021/10/11 01:52:45;;;;;;;25.93;16.70;;;5.10;99.90;;;;;;5028554;28;20398;-55
2021/10/11 01:55:11;;;;;;;27.80;16.60;;;5.10;99.90;;;;;;5029274;28;20383;-55
2021/10/11 01:57:37;;;;;;;27.83;16.80;;;5.00;99.90;;;;;;5028775;28;20471;-58
2021/10/11 02:00:05;;;;;;;26.65;17.00;;;4.90;99.90;;;;;;5028717;28;20423;-55
2021/10/11 02:02:31;;;;;;;28.05;16.85;;;5.00;99.90;;;;;;5029200;28;20406;-55
2021/10/11 02:04:57;;;;;;;30.30;17.40;;;5.00;99.90;;;;;;5028576;28;20383;-55
2021/10/11 02:07:22;;;;;;;29.13;17.57;;;5.00;99.90;;;;;;5028628;28;20457;-55
2021/10/11 02:09:48;;;;;;;28.15;17.38;;;4.90;99.90;;;;;;5028478;28;20387;-56
2021/10/11 02:12:14;;;;;;;26.58;17.50;;;4.70;99.90;;;;;;5028887;28;20706;-55
2021/10/11 02:14:40;;;;;;;31.05;18.17;;;4.70;99.90;;;;;;5028286;28;20387;-55
2021/10/11 02:17:05;;;;;;;30.97;17.83;;;4.60;99.90;;;;;;5029102;28;20842;-55
2021/10/11 02:19:31;;;;;;;26.85;17.40;;;4.60;99.90;;;;;;5029090;28;20461;-55
2021/10/11 02:21:57;;;;;;;26.40;17.77;;;6.00;99.90;;;;;;5028313;28;20478;-55
2021/10/11 02:24:23;;;;;;;30.33;17.60;;;5.00;99.90;;;;;;5028837;28;20383;-55
2021/10/11 02:26:49;;;;;;;31.60;17.70;;;4.50;99.90;;;;;;5060170;28;20466;-55
2021/10/11 02:29:15;;;;;;;27.83;17.52;;;4.50;99.90;;;;;;5043871;28;20508;-54
2021/10/11 02:31:41;;;;;;;28.05;17.42;;;4.50;99.90;;;;;;5028281;28;20922;-54
2021/10/11 02:34:08;;;;;;;28.13;17.50;;;4.50;99.90;;;;;;5044139;28;20406;-54
2021/10/11 02:36:34;;;;;;;31.58;18.00;;;4.50;99.90;;;;;;5028555;28;20402;-54
2021/10/11 02:38:59;;;;;;;31.77;19.00;;;4.40;99.90;;;;;;5027967;28;20411;-54
2021/10/11 02:41:25;;;;;;;28.65;18.52;;;4.30;99.90;;;;;;5028544;28;20874;-54
2021/10/11 02:43:50;;;;;;;33.77;20.30;;;4.20;99.90;;;;;;5028143;28;20497;-54
2021/10/11 02:46:17;;;;;;;31.17;18.17;;;4.30;99.90;;;;;;5028600;28;20389;-54
2021/10/11 02:48:42;;;;;;;30.60;18.90;;;4.40;99.90;;;;;;5039748;28;20484;-54
2021/10/11 02:51:08;;;;;;;28.57;17.57;;;4.30;99.90;;;;;;5048545;28;20468;-54
2021/10/11 02:53:34;;;;;;;28.53;16.90;;;4.30;99.90;;;;;;5048700;28;20381;-55
2021/10/11 02:55:59;;;;;;;30.65;17.00;;;4.40;99.90;;;;;;5047734;28;20808;-55
2021/10/11 02:58:25;;;;;;;30.10;18.20;;;4.50;99.90;;;;;;5052122;28;20511;-54
2021/10/11 03:00:51;;;;;;;28.98;17.92;;;4.50;99.90;;;;;;5051722;28;20729;-53
2021/10/11 03:03:16;;;;;;;34.97;18.30;;;4.50;99.90;;;;;;5051103;28;20735;-54
2021/10/11 03:05:42;;;;;;;27.37;18.50;;;4.50;99.90;;;;;;5046450;28;20389;-55
2021/10/11 03:08:07;;;;;;;31.80;18.17;;;4.40;99.90;;;;;;5038489;28;20425;-54
2021/10/11 03:10:33;;;;;;;29.47;18.73;;;4.40;99.90;;;;;;5031804;28;20762;-54
2021/10/11 03:12:59;;;;;;;30.27;19.10;;;4.40;99.90;;;;;;5049982;28;20884;-54
2021/10/11 03:15:24;;;;;;;31.20;17.87;;;5.80;99.90;;;;;;5084470;28;20400;-54
2021/10/11 03:17:50;;;;;;;32.33;19.00;;;4.20;99.90;;;;;;5051500;28;20856;-54
2021/10/11 03:20:16;;;;;;;30.60;17.08;;;5.30;99.90;;;;;;5051726;28;20958;-54
2021/10/11 03:22:41;;;;;;;29.90;18.17;;;4.30;99.90;;;;;;5051440;28;20400;-54
2021/10/11 03:25:07;;;;;;;30.50;18.08;;;4.20;99.90;;;;;;5051643;28;20380;-55
2021/10/11 03:27:33;;;;;;;32.10;18.88;;;4.10;99.90;;;;;;5084186;28;20519;-54
2021/10/11 03:29:58;;;;;;;32.33;19.50;;;4.10;99.90;;;;;;5050910;28;20597;-54
2021/10/11 03:32:24;;;;;;;34.60;19.30;;;4.10;99.90;;;;;;5051912;28;20915;-54
2021/10/11 03:34:50;;;;;;;32.80;19.70;;;4.20;99.90;;;;;;5050665;28;20942;-54
2021/10/11 03:37:17;;;;;;;39.13;19.00;;;4.30;99.90;;;;;;5051779;28;20393;-54
2021/10/11 03:39:43;;;;;;;29.45;18.83;;;4.20;99.90;;;;;;5050618;28;20440;-55
2021/10/11 03:42:08;;;;;;;32.75;19.45;;;4.10;99.90;;;;;;5051235;28;20386;-55
2021/10/11 03:44:34;;;;;;;29.33;17.90;;;4.00;99.90;;;;;;5051878;28;20389;-54
2021/10/11 03:47:00;;;;;;;30.87;18.10;;;4.00;99.90;;;;;;5050567;28;21010;-54
2021/10/11 03:49:26;;;;;;;32.95;18.70;;;5.40;99.90;;;;;;5050114;28;20492;-55
2021/10/11 03:51:51;;;;;;;34.53;18.98;;;4.10;99.90;;;;;;5050655;28;20389;-55
2021/10/11 03:54:17;;;;;;;31.30;19.63;;;4.10;99.90;;;;;;5051628;28;20833;-54
2021/10/11 03:56:44;;;;;;;33.83;19.85;;;4.10;99.90;;;;;;5050880;28;20393;-55
2021/10/11 03:59:11;;;;;;;31.73;19.48;;;4.20;99.90;;;;;;5051456;28;20729;-54
2021/10/11 04:01:37;;;;;;;30.05;19.25;;;3.30;99.90;;;;;;5050645;28;20825;-54
2021/10/11 04:04:03;;;;;;;29.65;19.17;;;4.70;99.90;;;;;;5050335;28;20476;-56
2021/10/11 04:06:29;;;;;;;33.70;19.65;;;3.90;99.90;;;;;;5050643;28;20466;-54
2021/10/11 04:08:55;;;;;;;31.08;18.77;;;4.20;99.90;;;;;;5049670;28;20864;-54
2021/10/11 04:11:23;;;;;;;30.20;19.35;;;4.70;99.90;;;;;;5051435;28;20393;-55
2021/10/11 04:13:49;;;;;;;33.87;19.47;;;4.20;99.90;;;;;;5049318;28;20448;-54
2021/10/11 04:16:14;;;;;;;33.53;20.13;;;4.30;99.90;;;;;;5049622;28;20378;-54
2021/10/11 04:18:41;;;;;;;30.73;18.20;;;4.30;99.90;;;;;;5050772;28;20417;-58
2021/10/11 04:21:07;;;;;;;31.35;18.20;;;4.30;99.90;;;;;;5045941;28;22487;-54
2021/10/11 04:23:33;;;;;;;29.83;18.70;;;5.10;99.90;;;;;;5037792;28;20399;-55
2021/10/11 04:25:58;;;;;;;30.48;18.17;;;4.40;99.90;;;;;;5029682;28;20379;-54
2021/10/11 04:28:24;;;;;;;34.00;19.90;;;4.30;99.90;;;;;;5030822;28;20774;-55
2021/10/11 04:30:50;;;;;;;29.33;19.70;;;4.30;99.90;;;;;;5037158;28;20409;-54
2021/10/11 04:33:16;;;;;;;30.17;19.13;;;4.30;99.90;;;;;;5044129;28;20407;-55
2021/10/11 04:35:43;;;;;;;29.58;18.13;;;4.20;99.90;;;;;;5037155;28;20862;-57
2021/10/11 04:38:09;;;;;;;31.33;18.40;;;4.20;99.90;;;;;;5033414;28;20425;-55
2021/10/11 04:40:35;;;;;;;33.90;19.17;;;4.20;99.90;;;;;;5030477;28;20407;-54
2021/10/11 04:43:01;;;;;;;34.65;19.75;;;4.20;99.90;;;;;;5029496;28;20391;-54
2021/10/11 04:45:30;;;;;;;29.92;18.00;;;4.20;99.90;;;;;;5041880;28;20407;-54
2021/10/11 04:47:58;;;;;;;30.30;18.77;;;4.20;99.90;;;;;;5029579;28;20414;-55
2021/10/11 04:50:24;;;;;;;29.67;18.05;;;4.20;99.90;;;;;;5029692;28;20465;-54
2021/10/11 04:52:50;;;;;;;29.97;17.90;;;4.20;99.90;;;;;;5028992;28;20450;-54
2021/10/11 04:55:15;;;;;;;30.87;17.87;;;4.10;99.90;;;;;;5035871;28;20874;-56
2021/10/11 04:57:41;;;;;;;30.30;18.20;;;4.10;99.90;;;;;;5032453;28;20807;-57
2021/10/11 05:00:07;;;;;;;30.10;17.70;;;4.10;99.90;;;;;;5031624;28;20481;-54
2021/10/11 05:02:33;;;;;;;29.60;17.07;;;4.10;99.90;;;;;;5047417;28;20464;-54
2021/10/11 05:04:59;;;;;;;30.88;17.58;;;4.00;99.90;;;;;;5048835;28;20644;-56
2021/10/11 05:07:24;;;;;;;30.53;17.70;;;3.90;99.90;;;;;;5049974;28;20874;-54
2021/10/11 05:09:50;;;;;;;33.30;18.10;;;3.90;99.90;;;;;;5049312;28;20386;-54
2021/10/11 05:12:15;;;;;;;30.60;17.95;;;3.90;99.90;;;;;;5049955;28;20473;-54
2021/10/11 05:14:41;;;;;;;28.97;18.83;;;3.90;99.90;;;;;;5049219;28;20390;-58
2021/10/11 05:17:07;;;;;;;29.02;17.92;;;3.80;99.90;;;;;;5049656;28;20388;-54
2021/10/11 05:19:33;;;;;;;32.83;18.63;;;3.80;99.90;;;;;;5042237;28;20409;-56
2021/10/11 05:21:58;;;;;;;34.50;18.47;;;4.10;99.90;;;;;;5049419;28;20812;-56
2021/10/11 05:24:24;;;;;;;33.25;17.52;;;3.90;99.90;;;;;;5030220;28;20471;-53
2021/10/11 05:26:54;;;;;;;30.27;18.80;;;3.90;99.90;;;;;;5029477;28;20391;-56
2021/10/11 05:29:21;;;;;;;30.00;18.40;;;3.90;99.90;;;;;;5028948;28;20873;-54
2021/10/11 05:31:47;;;;;;;36.20;19.65;;;4.00;99.90;;;;;;5044733;28;20391;-55
2021/10/11 05:34:13;;;;;;;34.05;19.30;;;4.10;99.90;;;;;;5029791;28;20394;-56
2021/10/11 05:36:39;;;;;;;33.08;17.42;;;4.30;99.90;;;;;;5038816;28;20454;-55
2021/10/11 05:39:05;;;;;;;29.52;17.10;;;4.30;99.90;;;;;;5036426;28;20920;-56
2021/10/11 05:41:31;;;;;;;28.93;17.93;;;4.40;99.90;;;;;;5037937;28;20381;-56
2021/10/11 05:43:56;;;;;;;29.92;17.98;;;4.30;99.90;;;;;;5049429;28;20419;-56
2021/10/11 05:46:22;;;;;;;28.67;17.93;;;4.30;99.90;;;;;;5049846;28;20386;-57
2021/10/11 05:48:48;;;;;;;29.83;18.75;;;4.30;99.90;;;;;;5038508;28;20927;-56
2021/10/11 05:51:13;;;;;;;29.13;17.50;;;5.90;99.90;;;;;;5037593;28;20795;-57
2021/10/11 05:53:39;;;;;;;32.22;18.60;;;4.40;99.90;;;;;;5040615;28;20396;-56
2021/10/11 05:56:04;;;;;;;33.57;18.67;;;4.40;99.90;;;;;;5048236;28;20388;-55
2021/10/11 05:58:31;;;;;;;31.17;19.25;;;4.60;99.90;;;;;;5032347;28;20465;-56
2021/10/11 06:00:57;;;;;;;32.38;19.10;;;4.70;99.90;;;;;;5034906;28;20884;-55
2021/10/11 06:03:22;;;;;;;28.47;17.77;;;4.70;99.90;;;;;;5039651;28;20381;-55
2021/10/11 06:05:48;;;;;;;31.02;18.58;;;4.90;99.90;;;;;;5044114;28;20393;-55
2021/10/11 06:08:14;;;;;;;28.67;17.00;;;5.10;99.90;;;;;;5043581;28;20520;-53
2021/10/11 06:10:40;;;;;;;26.10;16.58;;;5.50;99.90;;;;;;5029183;28;20941;-53
2021/10/11 06:13:06;;;;;;;34.55;18.35;;;5.80;99.90;;;;;;5046318;28;20480;-53
2021/10/11 06:15:31;;;;;;;29.63;15.85;;;6.00;99.90;;;;;;5037912;28;20883;-54
2021/10/11 06:17:57;;;;;;;24.77;15.40;;;6.70;99.90;;;;;;5040728;28;20402;-53
2021/10/11 06:20:23;;;;;;;27.65;16.02;;;7.00;99.90;;;;;;5028284;28;20390;-53
2021/10/11 06:22:48;;;;;;;24.93;15.10;;;7.10;99.90;;;;;;5043307;28;20436;-53
2021/10/11 06:25:14;;;;;;;25.73;15.20;;;7.60;99.90;;;;;;5047203;28;20405;-56
2021/10/11 06:27:40;;;;;;;26.60;14.40;;;8.40;99.90;;;;;;5048819;28;20388;-56
2021/10/11 06:30:06;;;;;;;27.93;15.10;;;9.20;99.90;;;;;;5048283;28;20888;-56
2021/10/11 06:32:32;;;;;;;23.70;13.93;;;9.60;99.90;;;;;;5052001;28;20425;-56
2021/10/11 06:34:57;;;;;;;22.47;14.17;;;10.30;99.90;;;;;;5034494;28;20480;-54
2021/10/11 06:37:23;;;;;;;25.53;13.83;;;10.60;99.90;;;;;;5047996;28;20409;-53
2021/10/11 06:39:49;;;;;;;24.20;13.98;;;10.80;99.90;;;;;;5036288;28;20509;-54
2021/10/11 06:42:15;;;;;;;22.50;13.53;;;10.90;99.90;;;;;;5053210;28;20385;-54
2021/10/11 06:44:40;;;;;;;21.48;14.35;;;11.00;99.90;;;;;;5039051;28;20386;-53
2021/10/11 06:47:06;;;;;;;23.50;13.85;;;11.10;99.90;;;;;;5048526;28;20401;-53
2021/10/11 06:49:32;;;;;;;24.37;13.73;;;11.90;99.90;;;;;;5034116;28;20592;-54
2021/10/11 06:51:57;;;;;;;22.15;13.95;;;12.50;99.90;;;;;;5051760;28;20717;-53
2021/10/11 06:54:23;;;;;;;24.57;14.23;;;12.80;99.90;;;;;;5049191;28;20387;-53
2021/10/11 06:56:49;;;;;;;21.27;14.57;;;13.00;99.90;;;;;;5036641;28;20385;-56
2021/10/11 06:59:14;;;;;;;22.08;14.52;;;13.90;99.90;;;;;;5051125;28;20401;-56
2021/10/11 07:01:43;;;;;;;23.10;14.23;;;14.80;99.90;;;;;;5052571;28;20392;-56
2021/10/11 07:04:09;;;;;;;25.42;15.30;;;15.00;99.90;;;;;;5052257;28;20472;-56
2021/10/11 07:06:35;;;;;;;24.95;16.10;;;15.60;99.90;;;;;;5046049;28;20786;-55
2021/10/11 07:09:02;;;;;;;26.73;17.10;;;16.40;97.80;;;;;;5046346;28;20425;-55
2021/10/11 07:11:27;;;;;;;21.63;16.65;;;17.00;96.30;;;;;;5046753;28;20401;-54
2021/10/11 07:13:53;;;;;;;24.40;20.40;;;17.10;95.10;;;;;;5044996;28;20802;-54
2021/10/11 07:16:18;;;;;;;22.25;18.73;;;17.80;94.40;;;;;;5044281;28;20452;-55
2021/10/11 07:18:44;;;;;;;22.15;19.25;;;18.20;91.90;;;;;;5049677;28;20417;-58
2021/10/11 07:21:10;;;;;;;22.30;19.90;;;16.90;92.60;;;;;;5051108;28;20413;-54
2021/10/11 07:23:36;;;;;;;25.80;20.50;;;17.20;93.10;;;;;;5046942;28;20492;-55
2021/10/11 07:26:04;;;;;;;23.63;20.30;;;18.30;92.50;;;;;;5051547;28;20373;-54
2021/10/11 07:28:30;;;;;;;23.20;20.70;;;19.50;88.20;;;;;;5051118;28;20393;-55
2021/10/11 07:30:55;;;;;;;26.60;20.40;;;19.90;82.10;;;;;;5051197;28;20705;-54
2021/10/11 07:33:22;;;;;;;26.37;20.43;;;19.40;82.70;;;;;;5052211;28;20849;-54
2021/10/11 07:35:51;;;;;;;23.42;19.50;;;18.80;83.50;;;;;;5050807;28;20391;-55
2021/10/11 07:38:18;;;;;;;22.67;18.95;;;18.20;86.40;;;;;;5051632;28;20420;-55
2021/10/11 07:40:44;;;;;;;25.70;20.40;;;18.30;85.20;;;;;;5051202;28;20495;-58
2021/10/11 07:43:10;;;;;;;24.23;19.73;;;17.60;86.70;;;;;;5050163;28;21095;-55
2021/10/11 07:45:36;;;;;;;25.40;21.00;;;16.80;91.30;;;;;;5051131;28;20385;-54
2021/10/11 07:48:01;;;;;;;27.52;21.95;;;17.80;90.10;;;;;;5051181;28;20377;-54
2021/10/11 07:50:29;;;;;;;28.17;21.93;;;19.40;85.30;;;;;;5051092;28;20414;-54
2021/10/11 07:52:55;;;;;;;26.50;23.60;;;20.00;81.40;;;;;;5050710;28;20382;-54
2021/10/11 07:55:20;;;;;;;25.20;22.50;;;19.70;81.30;;;;;;5051333;28;20374;-54
2021/10/11 07:57:46;;;;;;;26.02;22.27;;;19.30;84.10;;;;;;5050499;28;20409;-58
2021/10/11 08:00:16;;;;;;;26.42;23.20;;;18.90;84.80;;;;;;5050749;28;20592;-55
2021/10/11 08:02:42;;;;;;;23.92;21.42;;;18.70;87.10;;;;;;5051183;28;20439;-57
2021/10/11 08:05:09;;;;;;;28.00;22.83;;;18.90;82.90;;;;;;5050598;28;20374;-54
2021/10/11 08:07:35;;;;;;;29.88;22.30;;;18.30;83.80;;;;;;5050500;28;20419;-55
2021/10/11 08:10:01;;;;;;;31.42;23.60;;;17.20;88.10;;;;;;5049030;28;20721;-56
2021/10/11 08:12:26;;;;;;;26.98;23.60;;;16.90;89.60;;;;;;5051360;28;20476;-55
2021/10/11 08:14:52;;;;;;;26.13;21.53;;;16.60;90.80;;;;;;5050388;28;20888;-54
2021/10/11 08:17:18;;;;;;;27.83;20.83;;;16.60;91.70;;;;;;5051079;28;20381;-54
2021/10/11 08:19:43;;;;;;;28.90;23.13;;;16.60;91.40;;;;;;5050891;28;20463;-54
2021/10/11 08:22:09;;;;;;;26.15;21.52;;;16.60;91.20;;;;;;5049926;28;20733;-54
2021/10/11 08:24:35;;;;;;;28.37;21.70;;;16.40;92.30;;;;;;5050921;28;20381;-54
2021/10/11 08:27:00;;;;;;;27.67;22.10;;;16.40;92.50;;;;;;5048603;28;20857;-54
2021/10/11 08:29:26;;;;;;;24.05;20.38;;;16.40;92.70;;;;;;5050897;28;20385;-54
2021/10/11 08:31:55;;;;;;;24.17;20.98;;;16.50;92.70;;;;;;5049994;28;20381;-54
2021/10/11 08:34:20;;;;;;;26.98;20.70;;;16.90;93.10;;;;;;5050836;28;20382;-54
2021/10/11 08:36:46;;;;;;;26.73;20.87;;;17.60;92.00;;;;;;5050337;28;20385;-58
2021/10/11 08:39:12;;;;;;;28.10;21.10;;;17.30;92.10;;;;;;5050126;28;20406;-54
2021/10/11 08:41:38;;;;;;;22.88;19.15;;;17.50;92.40;;;;;;5050214;28;20756;-54
2021/10/11 08:44:04;;;;;;;23.40;18.40;;;18.30;90.90;;;;;;5049473;28;20418;-54
2021/10/11 08:46:30;;;;;;;23.65;20.02;;;18.70;90.40;;;;;;5049198;28;20942;-54
2021/10/11 08:48:56;;;;;;;22.60;18.60;;;19.20;88.30;;;;;;5049759;28;20431;-54
2021/10/11 08:51:22;;;;;;;24.30;20.48;;;19.30;86.80;;;;;;5049765;28;20386;-54
2021/10/11 08:53:48;;;;;;;23.65;19.70;;;19.60;85.00;;;;;;5044513;28;20417;-57
2021/10/11 08:56:14;;;;;;;23.43;20.20;;;19.10;85.10;;;;;;5044638;28;20462;-54
2021/10/11 08:58:48;;;;;;;21.92;18.90;;;19.10;85.70;;;;;;5045731;28;20413;-54
2021/10/11 09:01:14;;;;;;;21.40;19.15;;;20.30;82.60;;;;;;5046669;28;20404;-55
2021/10/11 09:03:41;;;;;;;22.40;19.92;;;21.10;78.90;;;;;;5048860;28;20432;-55
2021/10/11 09:06:11;;;;;;;22.30;19.75;;;20.40;79.00;;;;;;5047549;28;20625;-54
2021/10/11 09:08:40;;;;;;;22.50;18.98;;;19.70;81.60;;;;;;5042754;28;20730;-55
2021/10/11 09:11:08;;;;;;;22.42;17.80;;;19.70;82.20;;;;;;5048617;28;20608;-54
2021/10/11 09:13:39;;;;;;;21.48;18.38;;;19.20;83.70;;;;;;5042046;28;20407;-54
2021/10/11 09:16:17;;;;;;;23.00;17.10;;;18.70;85.80;;;;;;5029393;28;20615;-54
2021/10/11 09:18:51;;;;;;;22.33;17.57;;;17.90;86.30;;;;;;5029832;28;20418;-54
2021/10/11 09:21:28;;;;;;;21.67;18.10;;;17.50;89.00;;;;;;5028491;28;20391;-54
2021/10/11 09:24:04;;;;;;;22.90;17.70;;;17.40;90.00;;;;;;5029077;28;20382;-54
2021/10/11 09:26:44;;;;;;;23.10;18.58;;;17.10;90.30;;;;;;5029618;28;20383;-54
2021/10/11 09:29:10;;;;;;;22.08;18.48;;;17.10;90.90;;;;;;5028696;28;20387;-54
2021/10/11 09:31:42;;;;;;;23.83;18.87;;;17.00;91.20;;;;;;5029423;28;20379;-55
2021/10/11 09:34:09;;;;;;;22.35;19.25;;;17.50;90.80;;;;;;5028490;28;20379;-54
2021/10/11 09:36:35;;;;;;;24.23;21.55;;;18.00;90.00;;;;;;5029489;28;20413;-54
2021/10/11 09:39:03;;;;;;;23.52;21.02;;;18.00;89.60;;;;;;5028373;28;20977;-54
2021/10/11 09:41:29;;;;;;;22.73;17.85;;;17.80;90.30;;;;;;5029834;28;20706;-54
2021/10/11 09:43:56;;;;;;;23.13;20.50;;;18.00;90.10;;;;;;5028757;28;20870;-54
2021/10/11 09:46:24;;;;;;;23.58;21.08;;;18.40;90.70;;;;;;5029111;28;20392;-54
2021/10/11 09:48:52;;;;;;;24.35;20.27;;;18.80;89.00;;;;;;5028908;28;20398;-58
2021/10/11 09:51:21;;;;;;;21.70;17.88;;;18.90;89.60;;;;;;5029436;28;20383;-54
2021/10/11 09:53:48;;;;;;;22.30;19.20;;;19.50;87.30;;;;;;5028676;28;20394;-58
2021/10/11 09:56:14;;;;;;;24.33;20.77;;;19.90;86.00;;;;;;5028816;28;20383;-55
2021/10/11 09:58:39;;;;;;;27.63;18.93;;;20.40;84.70;;;;;;5029519;28;20468;-55
2021/10/11 10:01:06;;;;;;;23.00;18.30;;;21.40;82.30;;;;;;5028298;28;20387;-54
2021/10/11 10:03:34;;;;;;;21.60;19.02;;;21.40;79.60;;;;;;5029529;28;20402;-54
2021/10/11 10:06:01;;;;;;;26.37;20.10;;;20.80;80.50;;;;;;5027687;28;20383;-54
2021/10/11 10:08:29;;;;;;;23.95;18.02;;;20.70;81.50;;;;;;5028968;28;20415;-54
2021/10/11 10:11:00;;;;;;;21.17;16.30;;;20.10;82.40;;;;;;5028200;28;20390;-54
2021/10/11 10:13:27;;;;;;;23.40;17.07;;;20.40;82.60;;;;;;5028726;28;20870;-55
2021/10/11 10:15:56;;;;;;;23.83;17.98;;;20.70;81.90;;;;;;5028097;28;20393;-54
2021/10/11 10:18:22;;;;;;;23.80;18.50;;;20.90;79.10;;;;;;5028835;28;20433;-56
2021/10/11 10:20:59;;;;;;;26.95;17.90;;;21.00;78.60;;;;;;5028851;28;20387;-58
2021/10/11 10:23:53;;;;;;;24.27;17.45;;;20.80;79.20;;;;;;5028737;28;20887;-54
2021/10/11 10:26:26;;;;;;;21.50;15.80;;;20.50;79.60;;;;;;5028919;28;20398;-54
2021/10/11 10:28:53;;;;;;;21.88;17.95;;;20.10;79.90;;;;;;5028036;28;21000;-54
2021/10/11 10:31:26;;;;;;;23.40;16.15;;;19.60;82.90;;;;;;5028906;28;20445;-55
2021/10/11 10:33:52;;;;;;;26.38;18.67;;;19.00;83.60;;;;;;5027956;28;20445;-54
2021/10/11 10:36:21;;;;;;;21.07;18.80;;;19.20;84.60;;;;;;5028765;28;20870;-54
2021/10/11 10:39:07;;;;;;;21.85;17.83;;;19.60;84.70;;;;;;5028762;28;20411;-58
2021/10/11 10:41:34;;;;;;;22.13;17.50;;;20.30;81.70;;;;;;5028927;28;20406;-55
2021/10/11 10:44:29;;;;;;;20.20;17.90;;;21.20;76.50;;;;;;5027984;28;20399;-55
2021/10/11 10:47:02;;;;;;;21.55;19.17;;;21.50;77.60;;;;;;5019298;28;20500;-54
2021/10/11 10:49:39;;;;;;;25.02;20.02;;;21.90;76.40;;;;;;5028995;28;20394;-54
2021/10/11 10:52:25;;;;;;;22.55;19.60;;;22.20;75.10;;;;;;5027781;28;20387;-55
2021/10/11 10:54:55;;;;;;;20.63;18.08;;;22.00;74.30;;;;;;5027367;28;20399;-58
2021/10/11 10:57:23;;;;;;;23.10;19.83;;;20.60;76.90;;;;;;5037757;28;20884;-56
2021/10/11 10:59:54;;;;;;;23.95;19.60;;;20.60;77.50;;;;;;5048110;28;20456;-58
2021/10/11 11:02:20;;;;;;;25.95;18.77;;;20.30;76.50;;;;;;5048558;28;20385;-54
2021/10/11 11:05:12;;;;;;;22.73;18.27;;;19.90;77.50;;;;;;5048784;28;20369;-54
2021/10/11 11:07:39;;;;;;;24.95;18.80;;;19.40;77.00;;;;;;5047013;28;20419;-54
2021/10/11 11:10:15;;;;;;;24.30;17.47;;;19.60;76.90;;;;;;5047646;28;20397;-54
2021/10/11 11:12:50;;;;;;;25.95;20.35;;;19.00;78.60;;;;;;5048490;28;20454;-54
2021/10/11 11:15:27;;;;;;;28.00;20.23;;;18.90;81.80;;;;;;5048355;28;20366;-54
2021/10/11 11:17:57;;;;;;;29.90;20.92;;;19.10;81.50;;;;;;5048666;28;20424;-55
2021/10/11 11:20:26;;;;;;;25.50;20.35;;;18.70;83.10;;;;;;5051880;28;20857;-54
2021/10/11 11:22:59;;;;;;;25.70;19.50;;;18.50;83.90;;;;;;5050765;28;20744;-55
2021/10/11 11:25:33;;;;;;;28.80;20.80;;;18.30;84.50;;;;;;5052373;28;20404;-54
2021/10/11 11:28:00;;;;;;;29.70;20.90;;;17.90;86.00;;;;;;5050951;28;20518;-54
2021/10/11 11:30:26;;;;;;;27.58;20.15;;;17.80;88.40;;;;;;5052049;28;20389;-54
2021/10/11 11:33:01;;;;;;;28.73;21.00;;;17.60;88.20;;;;;;5051050;28;20389;-55
2021/10/11 11:35:32;;;;;;;27.55;20.85;;;17.60;88.90;;;;;;5051866;28;20887;-53
2021/10/11 11:38:04;;;;;;;26.83;19.33;;;17.40;90.10;;;;;;5050628;28;20400;-56
2021/10/11 11:40:33;;;;;;;27.73;19.58;;;17.20;88.30;;;;;;5051598;28;20853;-56
2021/10/11 11:42:59;;;;;;;28.13;19.92;;;17.40;87.10;;;;;;5050952;28;20381;-54
2021/10/11 11:45:53;;;;;;;27.10;20.27;;;17.30;88.10;;;;;;5051602;28;20423;-54
2021/10/11 11:48:21;;;;;;;29.60;20.47;;;17.50;87.30;;;;;;5050472;28;20492;-55
2021/10/11 11:50:50;;;;;;;23.20;17.95;;;17.50;88.60;;;;;;5051367;28;20420;-59
2021/10/11 11:53:18;;;;;;;25.27;19.08;;;17.20;86.40;;;;;;5051280;28;20407;-56
2021/10/11 11:55:58;;;;;;;24.73;18.30;;;17.10;88.20;;;;;;5050159;28;20389;-56
2021/10/11 11:58:25;;;;;;;25.03;17.40;;;17.30;88.50;;;;;;5051331;28;20499;-53
2021/10/11 12:00:54;;;;;;;24.03;17.53;;;17.60;87.60;;;;;;5050772;28;20381;-57
2021/10/11 12:03:25;;;;;;;23.58;17.88;;;18.00;86.60;;;;;;5051126;28;20389;-54
2021/10/11 12:05:53;;;;;;;26.80;18.58;;;18.40;85.50;;;;;;5050921;28;20399;-57
2021/10/11 12:08:19;;;;;;;24.25;17.85;;;18.60;84.60;;;;;;5050601;28;20417;-53
2021/10/11 12:11:06;;;;;;;25.98;16.50;;;18.00;87.40;;;;;;5051505;28;20393;-54
2021/10/11 12:13:35;;;;;;;21.65;16.85;;;18.30;87.80;;;;;;5050552;28;20377;-53
2021/10/11 12:16:03;;;;;;;24.58;16.98;;;18.10;85.50;;;;;;5050536;28;20385;-55
2021/10/11 12:18:38;;;;;;;22.85;16.90;;;17.50;88.40;;;;;;5050907;28;20459;-56
2021/10/11 12:21:04;;;;;;;23.45;17.13;;;17.40;90.10;;;;;;5050389;28;20390;-56
2021/10/11 12:23:49;;;;;;;22.63;15.30;;;17.50;89.30;;;;;;5050765;28;20396;-54
2021/10/11 12:26:15;;;;;;;26.60;17.08;;;17.30;90.40;;;;;;5050281;28;20381;-54
2021/10/11 12:28:51;;;;;;;24.10;15.95;;;17.20;90.40;;;;;;5050437;28;20724;-54
2021/10/11 12:31:23;;;;;;;25.27;16.43;;;17.20;91.10;;;;;;5051060;28;20860;-54
2021/10/11 12:33:50;;;;;;;25.17;17.10;;;17.20;91.10;;;;;;5050382;28;20424;-58